Terminal Aerodrome Forecast
Issued by NWS Charleston, WV

Current Version | Previous Version | Graphics & Text | Print | Product List | Glossary On
Versions: 1 2 3 4 5 6 7 8 9 10 11 12 13 14 15 16 17 18 19 20 21 22 23 24 25 26 27 28
000
FTUS41 KRLX 290500
TAFBKW
TAF
KBKW 290534Z 2906/3006 15007KT P6SM SCT150
     FM291100 15009KT P6SM SCT150
     FM291600 17011G18KT P6SM BKN100
     FM291800 18011G20KT P6SM -RA OVC050
     FM292000 19010KT P6SM OVC050
     FM300100 27011G18KT P6SM OVC025
     FM300300 27012G20KT P6SM OVC012
     FM300500 29013G23KT 5SM -SN OVC010=

USA.gov is the U.S. government's official web portal to all federal, state and local government web resources and services.